Time;durP1;ratioP1;P1;durP2;ratioP2;P2;SDS_P1;SDS_P2;PMS_P1;PMS_P2;Temp;Humidity;BMP_temperature;BMP_pressure;BME280_temperature;BME280_humidity;BME280_pressure;Samples;Min_cycle;Max_cycle;Signal;HPM_P1;HPM_P2
2023/06/17 00:02:16;;;;;;;;;;;;;;;16.22;37.59;100448.56;4933745;28;98253;-66
2023/06/17 00:04:42;;;;;;;;;;;;;;;16.22;37.83;100448.56;4935241;28;99076;-65
2023/06/17 00:07:09;;;;;;;;;;;;;;;16.20;37.71;100443.44;4940212;28;98003;-73
2023/06/17 00:09:35;;;;;;;;;;;;;;;16.19;37.67;100443.72;4930917;28;98423;-74
2023/06/17 00:12:02;;;;;;;;;;;;;;;16.17;37.85;100446.75;4932178;28;98174;-66
2023/06/17 00:14:32;;;;;;;;;;;;;;;16.17;37.92;100448.69;4964649;28;98193;-65
2023/06/17 00:17:00;;;;;;;;;;;;;;;16.16;37.84;100447.88;4930121;27;98119;-73
2023/06/17 00:19:27;;;;;;;;;;;;;;;16.16;37.83;100437.00;4927047;28;98192;-73
2023/06/17 00:21:54;;;;;;;;;;;;;;;16.16;37.87;100436.19;4932885;28;100309;-65
2023/06/17 00:24:23;;;;;;;;;;;;;;;16.14;37.62;100435.69;4931436;28;98101;-74
2023/06/17 00:26:49;;;;;;;;;;;;;;;16.12;37.79;100429.75;4961886;28;97989;-74
2023/06/17 00:29:15;;;;;;;;;;;;;;;16.11;37.82;100434.41;4923384;28;98410;-73
2023/06/17 00:31:41;;;;;;;;;;;;;;;16.11;37.71;100430.84;4934125;28;98106;-73
2023/06/17 00:34:08;;;;;;;;;;;;;;;16.10;37.89;100427.34;4929496;28;98414;-65
2023/06/17 00:36:35;;;;;;;;;;;;;;;16.09;37.65;100425.72;4928622;28;98490;-73
2023/06/17 00:39:02;;;;;;;;;;;;;;;16.06;37.93;100433.69;4934826;28;98160;-65
2023/06/17 00:41:29;;;;;;;;;;;;;;;16.05;37.99;100437.53;4947336;28;99853;-74
2023/06/17 00:43:55;;;;;;;;;;;;;;;16.02;37.85;100438.94;4949331;28;98318;-73
2023/06/17 00:46:41;;;;;;;;;;;;;;;16.01;37.71;100447.41;4932376;28;98241;-65
2023/06/17 00:49:09;;;;;;;;;;;;;;;15.97;38.12;100439.03;4963750;28;98132;-73
2023/06/17 00:51:36;;;;;;;;;;;;;;;15.95;37.98;100441.25;4934646;28;99253;-65
2023/06/17 00:54:02;;;;;;;;;;;;;;;15.91;37.76;100443.75;4931333;28;100210;-65
2023/06/17 00:56:31;;;;;;;;;;;;;;;15.89;37.91;100435.13;4927207;28;98298;-73
2023/06/17 00:58:57;;;;;;;;;;;;;;;15.88;37.92;100438.97;4931823;28;98474;-65
2023/06/17 01:01:24;;;;;;;;;;;;;;;15.87;38.07;100441.97;4926949;27;99565;-73
2023/06/17 01:03:54;;;;;;;;;;;;;;;15.85;37.75;100436.84;4943970;28;98111;-73
2023/06/17 01:06:35;;;;;;;;;;;;;;;15.84;37.86;100442.59;4924439;28;98986;-73
2023/06/17 01:09:05;;;;;;;;;;;;;;;15.80;38.06;100434.22;4948265;28;99543;-73
2023/06/17 01:11:31;;;;;;;;;;;;;;;15.79;38.17;100451.63;4942721;28;98060;-65
2023/06/17 01:13:57;;;;;;;;;;;;;;;15.76;37.75;100443.28;4931671;28;98082;-73
2023/06/17 01:16:25;;;;;;;;;;;;;;;15.75;37.94;100442.47;4932344;28;98332;-65
2023/06/17 01:18:53;;;;;;;;;;;;;;;15.73;38.02;100441.19;4942753;28;98283;-66
2023/06/17 01:21:22;;;;;;;;;;;;;;;15.71;37.80;100438.75;4924663;28;101003;-73
2023/06/17 01:23:52;;;;;;;;;;;;;;;15.67;38.24;100438.53;4931991;28;98081;-72
2023/06/17 01:26:19;;;;;;;;;;;;;;;15.66;37.90;100433.41;4931759;28;99568;-69
2023/06/17 01:28:45;;;;;;;;;;;;;;;15.64;37.82;100435.59;4926613;28;98104;-73
2023/06/17 01:31:12;;;;;;;;;;;;;;;15.61;37.98;100428.88;4947030;28;98407;-65
2023/06/17 01:33:39;;;;;;;;;;;;;;;15.59;38.08;100430.25;4933083;28;97848;-65
2023/06/17 01:36:25;;;;;;;;;;;;;;;15.57;38.04;100429.78;4947180;28;98812;-65
2023/06/17 01:38:54;;;;;;;;;;;;;;;15.55;38.01;100421.09;4933737;28;98033;-66
2023/06/17 01:41:26;;;;;;;;;;;;;;;15.53;38.07;100424.13;4941705;28;115384;-73
2023/06/17 01:43:53;;;;;;;;;;;;;;;15.52;37.99;100424.41;4931941;28;97894;-65
2023/06/17 01:46:20;;;;;;;;;;;;;;;15.51;38.20;100428.25;4929453;28;98357;-73
2023/06/17 01:48:47;;;;;;;;;;;;;;;15.50;37.98;100421.22;4931158;28;98018;-65
2023/06/17 01:51:13;;;;;;;;;;;;;;;15.47;37.86;100423.41;4931068;28;98029;-65
2023/06/17 01:53:39;;;;;;;;;;;;;;;15.46;38.08;100423.72;4924728;28;98045;-72
2023/06/17 01:56:06;;;;;;;;;;;;;;;15.45;38.28;100424.84;4922883;28;99902;-72
2023/06/17 01:58:33;;;;;;;;;;;;;;;15.44;38.11;100429.47;4943981;28;98571;-73
2023/06/17 02:00:59;;;;;;;;;;;;;;;15.42;38.15;100423.50;4943455;28;98075;-72
2023/06/17 02:03:25;;;;;;;;;;;;;;;15.42;38.32;100425.44;4930601;28;98112;-65
2023/06/17 02:05:51;;;;;;;;;;;;;;;15.39;38.32;100424.09;4941846;28;99663;-65
2023/06/17 02:08:18;;;;;;;;;;;;;;;15.40;38.12;100427.63;4944247;28;98359;-65
2023/06/17 02:10:44;;;;;;;;;;;;;;;15.38;38.06;100414.34;4945214;28;100588;-73
2023/06/17 02:13:12;;;;;;;;;;;;;;;15.37;37.88;100418.19;4947182;28;98315;-73
2023/06/17 02:15:42;;;;;;;;;;;;;;;15.34;38.01;100413.34;4947616;28;98175;-65
2023/06/17 02:18:12;;;;;;;;;;;;;;;15.32;38.13;100422.88;4931170;28;98098;-73
2023/06/17 02:20:38;;;;;;;;;;;;;;;15.27;38.16;100418.38;4943593;28;98342;-65
2023/06/17 02:23:05;;;;;;;;;;;;;;;15.23;38.47;100418.16;4948491;28;98245;-73
2023/06/17 02:25:31;;;;;;;;;;;;;;;15.22;38.20;100423.91;4940902;28;99269;-73
2023/06/17 02:27:57;;;;;;;;;;;;;;;15.19;38.16;100419.84;4930492;28;99804;-65
2023/06/17 02:30:24;;;;;;;;;;;;;;;15.18;38.36;100423.69;4923934;28;99984;-73
2023/06/17 02:32:52;;;;;;;;;;;;;;;15.17;38.34;100426.72;4922834;28;98422;-73
2023/06/17 02:35:19;;;;;;;;;;;;;;;15.14;38.38;100427.31;4923148;28;98876;-65
2023/06/17 02:37:45;;;;;;;;;;;;;;;15.10;38.25;100418.16;4930296;28;98529;-73
2023/06/17 02:40:11;;;;;;;;;;;;;;;15.09;38.50;100421.94;4928062;28;98303;-65
2023/06/17 02:42:38;;;;;;;;;;;;;;;15.09;38.49;100414.63;4955536;28;98214;-65
2023/06/17 02:45:07;;;;;;;;;;;;;;;15.08;38.27;100415.72;4929988;28;97870;-72
2023/06/17 02:47:33;;;;;;;;;;;;;;;15.08;38.28;100413.00;4929261;28;98266;-65
2023/06/17 02:50:00;;;;;;;;;;;;;;;15.08;38.11;100415.72;4943816;28;98255;-73
2023/06/17 02:52:30;;;;;;;;;;;;;;;15.07;38.35;100414.09;4947369;28;98058;-65
2023/06/17 02:54:59;;;;;;;;;;;;;;;15.08;38.06;100404.84;4930726;28;98282;-73
2023/06/17 02:57:26;;;;;;;;;;;;;;;15.09;38.29;100411.91;4961242;28;98235;-65
2023/06/17 02:59:52;;;;;;;;;;;;;;;15.10;38.37;100412.72;4943844;28;98507;-73
2023/06/17 03:02:18;;;;;;;;;;;;;;;15.12;38.14;100413.22;4945894;28;98362;-65
2023/06/17 03:04:45;;;;;;;;;;;;;;;15.11;38.36;100409.69;4941331;28;98580;-65
2023/06/17 03:07:15;;;;;;;;;;;;;;;15.09;38.09;100411.91;4919988;28;99369;-73
2023/06/17 03:09:41;;;;;;;;;;;;;;;15.10;38.52;100410.81;4941739;28;98815;-73
2023/06/17 03:12:08;;;;;;;;;;;;;;;15.10;38.21;100418.16;4922953;28;98291;-73
2023/06/17 03:14:35;;;;;;;;;;;;;;;15.09;38.31;100411.91;4920031;28;98241;-66
2023/06/17 03:17:03;;;;;;;;;;;;;;;15.08;38.22;100404.06;4955642;28;98319;-64
2023/06/17 03:19:29;;;;;;;;;;;;;;;15.09;38.54;100416.50;4936576;28;98346;-66
2023/06/17 03:21:56;;;;;;;;;;;;;;;15.09;38.41;100413.78;4922924;28;97880;-65
2023/06/17 03:24:22;;;;;;;;;;;;;;;15.08;38.46;100409.47;4953260;28;99368;-73
2023/06/17 03:26:48;;;;;;;;;;;;;;;15.06;38.28;100407.06;4938652;28;98502;-65
2023/06/17 03:29:16;;;;;;;;;;;;;;;15.04;38.35;100406.56;4939704;28;98740;-73
2023/06/17 03:31:42;;;;;;;;;;;;;;;15.05;38.51;100412.78;4924663;28;98033;-73
2023/06/17 03:34:08;;;;;;;;;;;;;;;15.06;38.28;100411.69;4920212;28;98724;-73
2023/06/17 03:36:35;;;;;;;;;;;;;;;15.06;38.57;100414.41;4927078;28;98698;-65
2023/06/17 03:39:01;;;;;;;;;;;;;;;15.08;38.26;100415.72;4920324;28;99761;-65
2023/06/17 03:41:28;;;;;;;;;;;;;;;15.09;38.36;100416.50;4941326;28;98146;-73
2023/06/17 03:43:54;;;;;;;;;;;;;;;15.13;38.17;100417.53;4943134;28;98137;-65
2023/06/17 03:46:21;;;;;;;;;;;;;;;15.15;38.17;100412.63;4945904;28;100211;-65
2023/06/17 03:48:48;;;;;;;;;;;;;;;15.16;38.24;100412.31;4925765;28;98276;-73
2023/06/17 03:51:14;;;;;;;;;;;;;;;15.20;38.23;100418.75;4920491;28;98810;-73
2023/06/17 03:53:40;;;;;;;;;;;;;;;15.23;38.14;100418.16;4941390;28;98078;-73
2023/06/17 03:56:07;;;;;;;;;;;;;;;15.26;38.40;100405.91;4939444;28;98153;-72
2023/06/17 03:58:33;;;;;;;;;;;;;;;15.29;38.38;100408.03;4921324;28;97949;-65
2023/06/17 04:00:59;;;;;;;;;;;;;;;15.33;38.21;100416.38;4952863;28;100500;-72
2023/06/17 04:03:26;;;;;;;;;;;;;;;15.35;38.12;100406.00;4958198;28;98367;-73
2023/06/17 04:05:53;;;;;;;;;;;;;;;15.38;38.13;100416.28;4922182;28;98164;-72
2023/06/17 04:08:22;;;;;;;;;;;;;;;15.42;38.00;100414.56;4926755;28;99724;-65
2023/06/17 04:10:48;;;;;;;;;;;;;;;15.44;38.01;100415.06;4929428;28;98089;-65
2023/06/17 04:13:15;;;;;;;;;;;;;;;15.42;38.06;100418.09;4943709;28;98184;-73
2023/06/17 04:15:46;;;;;;;;;;;;;;;15.43;38.21;100424.31;4929548;28;101548;-65
2023/06/17 04:18:12;;;;;;;;;;;;;;;15.41;38.31;100413.75;4953860;28;98394;-71
2023/06/17 04:20:40;;;;;;;;;;;;;;;15.42;38.18;100417.28;4939422;28;98200;-65
2023/06/17 04:23:06;;;;;;;;;;;;;;;15.42;38.46;100411.84;4928522;28;98964;-72
2023/06/17 04:25:32;;;;;;;;;;;;;;;15.42;38.30;100409.94;4945606;28;100020;-72
2023/06/17 04:28:01;;;;;;;;;;;;;;;15.43;38.26;100408.03;4923322;28;99595;-65
2023/06/17 04:30:27;;;;;;;;;;;;;;;15.42;38.15;100407.22;4923692;28;97883;-65
2023/06/17 04:32:58;;;;;;;;;;;;;;;15.44;38.19;100415.06;4907560;28;103511;-72
2023/06/17 04:35:25;;;;;;;;;;;;;;;15.47;38.07;100415.25;4930486;28;98220;-66
2023/06/17 04:37:53;;;;;;;;;;;;;;;15.50;38.05;100415.78;4921591;28;99182;-66
2023/06/17 04:40:21;;;;;;;;;;;;;;;15.54;38.27;100422.22;4945040;28;98553;-66
2023/06/17 04:42:48;;;;;;;;;;;;;;;15.58;38.23;100415.06;4927976;28;98188;-66
2023/06/17 04:45:15;;;;;;;;;;;;;;;15.60;38.37;100419.09;4927806;28;99369;-73
2023/06/17 04:47:42;;;;;;;;;;;;;;;15.67;38.11;100419.53;4937293;28;99492;-66
2023/06/17 04:50:08;;;;;;;;;;;;;;;15.72;38.50;100424.06;4919413;28;98348;-66
2023/06/17 04:52:35;;;;;;;;;;;;;;;15.77;38.14;100423.97;4937109;28;98103;-74
2023/06/17 04:55:01;;;;;;;;;;;;;;;15.81;37.90;100416.81;4923106;28;98730;-73
2023/06/17 04:57:27;;;;;;;;;;;;;;;15.87;38.16;100422.94;4924986;28;98492;-66
2023/06/17 04:59:54;;;;;;;;;;;;;;;15.95;37.95;100419.50;4925276;28;100816;-73
2023/06/17 05:02:20;;;;;;;;;;;;;;;16.06;38.06;100436.41;4924067;28;98186;-69
2023/06/17 05:04:46;;;;;;;;;;;;;;;16.15;38.01;100423.69;4957064;28;98926;-73
2023/06/17 05:07:12;;;;;;;;;;;;;;;16.20;37.85;100427.13;4939145;28;98578;-66
2023/06/17 05:09:39;;;;;;;;;;;;;;;16.25;37.90;100415.31;4937810;28;97921;-68
2023/06/17 05:12:06;;;;;;;;;;;;;;;16.30;38.01;100420.63;4954943;28;98562;-66
2023/06/17 05:14:32;;;;;;;;;;;;;;;16.36;37.96;100424.88;4927847;28;101082;-73
2023/06/17 05:16:59;;;;;;;;;;;;;;;16.43;38.05;100427.19;4918995;28;98471;-73
2023/06/17 05:19:25;;;;;;;;;;;;;;;16.52;38.07;100429.97;4943449;28;97943;-66
2023/06/17 05:21:51;;;;;;;;;;;;;;;16.59;37.86;100428.41;4939698;28;98083;-73
2023/06/17 05:24:18;;;;;;;;;;;;;;;16.65;37.96;100429.09;4921400;28;99129;-66
2023/06/17 05:26:44;;;;;;;;;;;;;;;16.70;37.90;100428.97;4940056;28;99558;-73
2023/06/17 05:29:10;;;;;;;;;;;;;;;16.76;37.99;100435.13;4940431;28;98334;-73
2023/06/17 05:31:36;;;;;;;;;;;;;;;16.82;37.88;100434.72;4951349;28;98893;-66
2023/06/17 05:34:03;;;;;;;;;;;;;;;16.88;37.97;100425.28;4940451;28;98747;-73
2023/06/17 05:36:29;;;;;;;;;;;;;;;16.99;38.00;100430.50;4951740;28;98295;-66
2023/06/17 05:38:56;;;;;;;;;;;;;;;17.08;37.77;100431.34;4921714;28;100042;-66
2023/06/17 05:41:22;;;;;;;;;;;;;;;17.17;37.75;100427.56;4939590;28;98990;-66
2023/06/17 05:43:48;;;;;;;;;;;;;;;17.25;37.80;100431.44;4922865;28;99925;-66
2023/06/17 05:46:14;;;;;;;;;;;;;;;17.35;37.67;100438.53;4939775;28;98067;-66
2023/06/17 05:48:42;;;;;;;;;;;;;;;17.43;37.68;100429.59;4952916;28;120689;-73
2023/06/17 05:51:08;;;;;;;;;;;;;;;17.48;37.75;100434.09;4916822;28;98150;-66
2023/06/17 05:53:35;;;;;;;;;;;;;;;17.51;37.64;100431.56;4939124;28;98352;-67
2023/06/17 05:56:01;;;;;;;;;;;;;;;17.56;37.75;100427.88;4920301;28;98288;-72
2023/06/17 05:58:27;;;;;;;;;;;;;;;17.62;37.68;100427.44;4934636;28;98483;-66
2023/06/17 06:00:54;;;;;;;;;;;;;;;17.65;37.56;100439.63;4938356;28;97930;-66
2023/06/17 06:03:21;;;;;;;;;;;;;;;17.59;37.76;100432.72;4940802;28;98288;-73
2023/06/17 06:05:47;;;;;;;;;;;;;;;17.56;37.84;100433.34;4916848;28;100565;-66
2023/06/17 06:08:13;;;;;;;;;;;;;;;17.58;37.81;100439.28;4955401;28;98870;-66
2023/06/17 06:10:40;;;;;;;;;;;;;;;17.60;37.86;100439.75;4940027;28;98840;-67
2023/06/17 06:13:08;;;;;;;;;;;;;;;17.54;37.96;100436.38;4939223;28;98503;-73
2023/06/17 06:15:34;;;;;;;;;;;;;;;17.48;37.92;100442.28;4922094;28;98463;-73
2023/06/17 06:18:01;;;;;;;;;;;;;;;17.48;38.17;100434.09;4935884;28;98112;-72
2023/06/17 06:20:28;;;;;;;;;;;;;;;17.54;37.86;100436.38;4933793;28;98532;-66
2023/06/17 06:22:55;;;;;;;;;;;;;;;17.56;37.91;100434.13;4950569;28;98427;-73
2023/06/17 06:25:22;;;;;;;;;;;;;;;17.54;37.86;100441.03;4934925;28;99014;-66
2023/06/17 06:27:50;;;;;;;;;;;;;;;17.56;38.02;100441.50;4917839;28;98285;-66
2023/06/17 06:30:16;;;;;;;;;;;;;;;17.58;38.03;100450.97;4955783;28;99339;-73
2023/06/17 06:32:44;;;;;;;;;;;;;;;17.64;37.93;100446.19;4936843;28;100103;-72
2023/06/17 06:35:10;;;;;;;;;;;;;;;17.66;38.00;100439.31;4918627;28;98294;-67
2023/06/17 06:37:38;;;;;;;;;;;;;;;17.72;37.92;100452.78;4953869;28;98152;-67
2023/06/17 06:40:05;;;;;;;;;;;;;;;17.73;37.79;100451.69;4932389;28;98105;-71
2023/06/17 06:42:32;;;;;;;;;;;;;;;17.72;38.02;100461.75;4936078;28;98566;-65
2023/06/17 06:44:58;;;;;;;;;;;;;;;17.78;38.02;100454.28;4920844;28;98322;-71
2023/06/17 06:47:25;;;;;;;;;;;;;;;17.87;37.78;100460.56;4940262;28;99515;-71
2023/06/17 06:49:51;;;;;;;;;;;;;;;17.95;37.70;100465.25;4923301;28;98243;-65
2023/06/17 06:52:20;;;;;;;;;;;;;;;18.04;37.94;100457.91;4934732;28;99223;-71
2023/06/17 06:54:46;;;;;;;;;;;;;;;18.07;37.71;100459.97;4937652;28;99825;-65
2023/06/17 06:57:12;;;;;;;;;;;;;;;18.15;37.88;100456.47;4953118;28;99332;-65
2023/06/17 06:59:39;;;;;;;;;;;;;;;18.28;37.83;100460.19;4937160;28;99045;-71
2023/06/17 07:02:06;;;;;;;;;;;;;;;18.36;37.52;100466.78;4954318;28;99218;-72
2023/06/17 07:04:32;;;;;;;;;;;;;;;18.38;37.80;100467.25;4954224;28;99257;-71
2023/06/17 07:06:59;;;;;;;;;;;;;;;18.39;37.67;100471.59;4939356;28;98587;-72
2023/06/17 07:09:25;;;;;;;;;;;;;;;18.44;37.85;100476.09;4944452;28;98266;-71
2023/06/17 07:11:53;;;;;;;;;;;;;;;18.45;37.85;100472.25;4927269;28;98786;-65
2023/06/17 07:14:20;;;;;;;;;;;;;;;18.48;37.70;100469.69;4927953;28;98227;-66
2023/06/17 07:16:47;;;;;;;;;;;;;;;18.51;37.97;100462.75;4928485;28;99437;-71
2023/06/17 07:19:13;;;;;;;;;;;;;;;18.50;37.74;100477.53;4919050;28;101077;-72
2023/06/17 07:21:40;;;;;;;;;;;;;;;18.48;37.82;100477.88;4925290;28;98566;-65
2023/06/17 07:24:06;;;;;;;;;;;;;;;18.50;37.95;100474.81;4927903;28;99444;-65
2023/06/17 07:26:33;;;;;;;;;;;;;;;18.58;37.71;100474.81;4927288;28;97985;-72
2023/06/17 07:29:01;;;;;;;;;;;;;;;18.75;37.69;100465.88;4927571;28;98815;-65
2023/06/17 07:31:30;;;;;;;;;;;;;;;18.82;37.62;100477.13;4941998;28;100256;-66
2023/06/17 07:33:57;;;;;;;;;;;;;;;18.75;37.94;100470.53;4943198;28;98235;-72
2023/06/17 07:36:24;;;;;;;;;;;;;;;18.69;37.93;100478.03;4955421;28;98489;-65
2023/06/17 07:38:51;;;;;;;;;;;;;;;18.70;38.03;100470.63;4944630;28;98215;-65
2023/06/17 07:41:17;;;;;;;;;;;;;;;18.72;38.00;100479.34;4926345;28;98362;-65
2023/06/17 07:43:44;;;;;;;;;;;;;;;18.75;37.83;100482.25;4943366;28;98657;-65
2023/06/17 07:46:10;;;;;;;;;;;;;;;18.83;37.99;100480.66;4923281;28;98223;-65
2023/06/17 07:48:36;;;;;;;;;;;;;;;18.84;37.60;100482.25;4947020;28;98664;-65
2023/06/17 07:51:03;;;;;;;;;;;;;;;18.95;37.87;100483.53;4931083;28;98576;-71
2023/06/17 07:53:29;;;;;;;;;;;;;;;19.10;37.67;100483.03;4931794;28;98188;-72
2023/06/17 07:55:56;;;;;;;;;;;;;;;19.34;37.40;100484.41;4929906;28;98380;-71
2023/06/17 07:58:22;;;;;;;;;;;;;;;19.60;37.22;100476.13;4930915;28;98014;-65
2023/06/17 08:00:49;;;;;;;;;;;;;;;19.81;37.05;100479.78;4927245;28;99508;-65
2023/06/17 08:03:16;;;;;;;;;;;;;;;19.98;37.17;100483.56;4944074;28;98258;-65
2023/06/17 08:05:43;;;;;;;;;;;;;;;20.11;37.04;100471.56;4938879;28;98837;-65
2023/06/17 08:08:10;;;;;;;;;;;;;;;20.36;36.83;100472.53;4930151;28;99709;-65
2023/06/17 08:10:36;;;;;;;;;;;;;;;20.48;36.86;100477.28;4921618;28;98414;-71
2023/06/17 08:13:03;;;;;;;;;;;;;;;20.66;36.82;100477.97;4930519;28;99088;-65
2023/06/17 08:15:29;;;;;;;;;;;;;;;20.82;36.84;100477.00;4927829;28;99604;-65
2023/06/17 08:17:55;;;;;;;;;;;;;;;20.97;36.79;100474.78;4923960;28;98071;-71
2023/06/17 08:20:22;;;;;;;;;;;;;;;21.04;36.71;100472.31;4933716;28;98350;-65
2023/06/17 08:22:48;;;;;;;;;;;;;;;21.05;36.78;100473.91;4923088;27;99173;-72
2023/06/17 08:25:15;;;;;;;;;;;;;;;21.03;36.87;100474.25;4928684;28;98225;-72
2023/06/17 08:27:47;;;;;;;;;;;;;;;21.19;36.82;100470.88;4945276;27;98492;-65
2023/06/17 08:30:13;;;;;;;;;;;;;;;21.40;36.63;100468.09;4923500;28;98022;-65
2023/06/17 08:32:40;;;;;;;;;;;;;;;21.54;36.64;100463.09;4929243;27;98392;-72
2023/06/17 08:35:07;;;;;;;;;;;;;;;21.74;36.50;100475.91;4925627;28;99275;-71
2023/06/17 08:37:34;;;;;;;;;;;;;;;22.04;36.33;100470.19;4925659;28;98502;-65
2023/06/17 08:40:00;;;;;;;;;;;;;;;22.35;36.26;100463.31;4902178;28;103069;-65
2023/06/17 08:42:30;;;;;;;;;;;;;;;22.48;36.02;100467.66;4928428;28;98207;-72
2023/06/17 08:45:02;;;;;;;;;;;;;;;22.53;36.16;100478.38;4961915;28;97964;-72
2023/06/17 08:47:29;;;;;;;;;;;;;;;22.62;36.16;100465.28;4954862;27;98162;-71
2023/06/17 08:49:58;;;;;;;;;;;;;;;22.71;36.11;100460.44;4908237;28;98903;-65
2023/06/17 08:52:24;;;;;;;;;;;;;;;23.03;36.14;100468.84;4921539;28;98676;-72
2023/06/17 08:54:51;;;;;;;;;;;;;;;23.19;36.13;100466.91;4920287;28;98131;-72
2023/06/17 08:57:18;;;;;;;;;;;;;;;23.29;35.86;100465.59;4946570;28;99770;-65
2023/06/17 08:59:44;;;;;;;;;;;;;;;23.43;35.88;100459.66;4931439;28;97977;-72
2023/06/17 09:02:11;;;;;;;;;;;;;;;23.54;35.97;100463.50;4939586;28;98449;-65
2023/06/17 09:04:38;;;;;;;;;;;;;;;23.66;36.17;100457.91;4924276;28;98458;-65
2023/06/17 09:07:06;;;;;;;;;;;;;;;23.81;35.60;100458.25;4939090;28;98475;-71
2023/06/17 09:09:33;;;;;;;;;;;;;;;23.90;35.97;100456.91;4924271;28;98234;-72
2023/06/17 09:12:04;;;;;;;;;;;;;;;24.05;35.88;100460.81;4939916;28;98276;-65
2023/06/17 09:14:31;;;;;;;;;;;;;;;24.06;36.06;100456.88;4942392;28;98285;-65
2023/06/17 09:17:00;;;;;;;;;;;;;;;24.42;35.40;100460.47;4938904;28;98653;-72
2023/06/17 09:19:28;;;;;;;;;;;;;;;24.69;35.34;100451.19;4945062;28;98327;-72
2023/06/17 09:21:55;;;;;;;;;;;;;;;25.12;35.17;100456.75;4957254;28;98784;-72
2023/06/17 09:24:27;;;;;;;;;;;;;;;25.14;35.15;100451.66;4916951;28;99814;-65
2023/06/17 09:26:54;;;;;;;;;;;;;;;25.28;35.38;100451.94;4928001;28;98283;-72
2023/06/17 09:29:21;;;;;;;;;;;;;;;25.49;35.11;100453.47;4920316;28;98136;-66
2023/06/17 09:31:51;;;;;;;;;;;;;;;25.79;35.14;100448.06;4952745;28;99626;-73
2023/06/17 09:34:17;;;;;;;;;;;;;;;26.15;34.73;100450.19;4916590;28;98472;-73
2023/06/17 09:36:44;;;;;;;;;;;;;;;27.15;34.00;100456.16;4939574;28;98074;-66
2023/06/17 09:39:12;;;;;;;;;;;;;;;27.75;33.67;100449.63;4940667;28;98223;-73
2023/06/17 09:41:41;;;;;;;;;;;;;;;28.48;33.08;100450.44;4939272;28;98373;-73
2023/06/17 09:44:08;;;;;;;;;;;;;;;29.93;32.35;100442.75;4919546;28;98818;-72
2023/06/17 09:46:37;;;;;;;;;;;;;;;29.83;32.66;100451.91;4943574;28;98354;-73
2023/06/17 09:49:12;;;;;;;;;;;;;;;29.68;33.01;100445.59;4958450;28;98023;-72
2023/06/17 09:51:39;;;;;;;;;;;;;;;29.23;33.74;100441.56;4935111;28;98271;-65
2023/06/17 09:54:06;;;;;;;;;;;;;;;28.43;34.41;100450.03;4940170;28;98756;-66
2023/06/17 09:56:33;;;;;;;;;;;;;;;28.46;34.33;100440.94;4923825;28;98369;-66
2023/06/17 09:59:03;;;;;;;;;;;;;;;29.39;33.55;100436.41;4937637;28;98457;-66
2023/06/17 10:01:39;;;;;;;;;;;;;;;28.91;34.48;100433.97;4920829;28;100340;-72
2023/06/17 10:04:06;;;;;;;;;;;;;;;28.40;34.59;100437.75;4939350;28;100106;-72
2023/06/17 10:06:39;;;;;;;;;;;;;;;28.09;35.07;100434.38;4938502;28;97988;-72
2023/06/17 10:09:07;;;;;;;;;;;;;;;28.96;33.91;100424.44;4909285;28;98091;-65
2023/06/17 10:11:36;;;;;;;;;;;;;;;29.68;33.39;100425.34;4921898;28;99193;-72
2023/06/17 10:14:06;;;;;;;;;;;;;;;29.81;33.78;100423.75;4925241;28;99151;-73
2023/06/17 10:16:36;;;;;;;;;;;;;;;29.72;34.05;100417.81;4937758;28;98034;-65
2023/06/17 10:19:05;;;;;;;;;;;;;;;29.86;33.88;100417.78;4925021;28;98368;-72
2023/06/17 10:21:31;;;;;;;;;;;;;;;29.58;33.92;100422.16;4943139;28;99311;-65
2023/06/17 10:24:00;;;;;;;;;;;;;;;28.91;34.92;100419.31;4940694;28;97984;-65
2023/06/17 10:26:28;;;;;;;;;;;;;;;28.49;35.31;100420.75;4935078;28;98390;-65
2023/06/17 10:28:54;;;;;;;;;;;;;;;28.14;35.34;100420.19;4935907;28;98111;-73
2023/06/17 10:31:24;;;;;;;;;;;;;;;27.77;35.48;100416.78;4948517;28;98235;-65
2023/06/17 10:33:53;;;;;;;;;;;;;;;27.57;35.63;100411.47;4919314;28;98049;-72
2023/06/17 10:36:21;;;;;;;;;;;;;;;27.40;35.89;100406.59;4940824;28;98189;-65
2023/06/17 10:39:12;;;;;;;;;;;;;;;27.08;36.16;100411.84;4927896;28;98467;-72
2023/06/17 10:41:38;;;;;;;;;;;;;;;27.23;35.46;100410.00;4940443;28;98305;-73
2023/06/17 10:44:27;;;;;;;;;;;;;;;27.65;35.37;100404.03;4956496;28;98417;-72
2023/06/17 10:46:56;;;;;;;;;;;;;;;27.97;34.83;100400.69;4957623;28;97975;-65
2023/06/17 10:49:23;;;;;;;;;;;;;;;28.48;34.46;100395.00;4924370;28;98495;-72
2023/06/17 10:51:50;;;;;;;;;;;;;;;28.82;34.03;100401.06;4938616;28;98582;-72
2023/06/17 10:54:35;;;;;;;;;;;;;;;29.48;33.79;100403.53;4939874;28;98137;-65
2023/06/17 10:57:04;;;;;;;;;;;;;;;28.68;34.55;100394.69;4957975;28;100093;-65
2023/06/17 10:59:30;;;;;;;;;;;;;;;28.30;35.03;100394.94;4918941;28;98786;-65
2023/06/17 11:02:06;;;;;;;;;;;;;;;31.62;31.87;100393.41;4954848;28;98819;-72
2023/06/17 11:04:36;;;;;;;;;;;;;;;33.53;30.71;100398.09;4957487;28;99031;-65
2023/06/17 11:07:04;;;;;;;;;;;;;;;34.63;29.88;100404.31;4926376;28;98459;-72
2023/06/17 11:09:31;;;;;;;;;;;;;;;34.90;30.51;100400.53;4940981;28;98072;-65
2023/06/17 11:12:00;;;;;;;;;;;;;;;35.89;30.09;100390.84;4937947;28;100323;-72
2023/06/17 11:14:28;;;;;;;;;;;;;;;36.44;29.87;100394.47;4928342;27;98965;-65
2023/06/17 11:16:54;;;;;;;;;;;;;;;36.98;29.54;100390.84;4896712;27;98655;-66
2023/06/17 11:19:21;;;;;;;;;;;;;;;37.53;29.27;100385.00;4918226;27;99336;-73
2023/06/17 11:21:57;;;;;;;;;;;;;;;35.04;31.99;100379.81;4922536;28;100301;-73
2023/06/17 11:24:25;;;;;;;;;;;;;;;33.27;33.58;100374.56;4915424;27;98780;-65
2023/06/17 11:26:51;;;;;;;;;;;;;;;32.25;34.73;100360.47;4941809;28;98470;-72
2023/06/17 11:29:20;;;;;;;;;;;;;;;31.46;35.20;100366.09;4925513;27;99428;-72
2023/06/17 11:31:46;;;;;;;;;;;;;;;30.95;35.29;100356.56;4918584;28;99406;-72
2023/06/17 11:34:14;;;;;;;;;;;;;;;30.54;35.39;100364.75;4925568;28;98212;-65
2023/06/17 11:36:40;;;;;;;;;;;;;;;30.08;35.60;100358.19;4939423;28;98052;-72
2023/06/17 11:39:06;;;;;;;;;;;;;;;29.80;35.46;100359.06;4928597;28;98370;-72
2023/06/17 11:41:33;;;;;;;;;;;;;;;29.66;35.77;100361.09;4947485;28;99307;-67
2023/06/17 11:43:59;;;;;;;;;;;;;;;32.01;33.09;100359.56;4949453;28;98347;-65
2023/06/17 11:46:25;;;;;;;;;;;;;;;33.00;32.56;100361.44;4929859;28;98257;-71
2023/06/17 11:48:51;;;;;;;;;;;;;;;33.12;33.09;100360.84;4947333;28;98229;-65
2023/06/17 11:51:18;;;;;;;;;;;;;;;31.99;34.15;100355.63;4929230;28;97991;-71
2023/06/17 11:53:47;;;;;;;;;;;;;;;31.21;34.56;100362.75;4946854;28;98013;-72
2023/06/17 11:56:14;;;;;;;;;;;;;;;30.43;35.32;100344.56;4946344;28;99552;-72
2023/06/17 11:58:41;;;;;;;;;;;;;;;29.68;35.84;100355.94;4947109;28;98607;-73
2023/06/17 12:01:09;;;;;;;;;;;;;;;28.95;36.34;100365.41;4940611;28;98513;-67
2023/06/17 12:03:36;;;;;;;;;;;;;;;28.32;36.64;100377.91;4942348;28;98231;-67
2023/06/17 12:06:03;;;;;;;;;;;;;;;27.69;36.76;100393.75;4927525;28;98264;-73
2023/06/17 12:08:34;;;;;;;;;;;;;;;27.13;36.90;100370.81;4927742;28;98730;-72
2023/06/17 12:11:08;;;;;;;;;;;;;;;26.61;37.20;100363.56;4948149;28;98055;-72
2023/06/17 12:13:41;;;;;;;;;;;;;;;26.18;37.05;100352.78;4940226;28;98212;-72
2023/06/17 12:16:11;;;;;;;;;;;;;;;25.89;37.11;100359.09;4923706;28;98053;-71
2023/06/17 12:18:45;;;;;;;;;;;;;;;25.70;37.02;100352.50;4956831;28;98089;-72
2023/06/17 12:21:12;;;;;;;;;;;;;;;25.53;37.12;100342.00;4945775;28;97937;-66
2023/06/17 12:23:38;;;;;;;;;;;;;;;25.39;37.40;100348.09;4924182;28;98063;-66
2023/06/17 12:26:04;;;;;;;;;;;;;;;25.27;36.95;100344.72;4921696;28;98702;-72
2023/06/17 12:28:32;;;;;;;;;;;;;;;25.19;37.10;100346.56;4943543;28;98066;-72
2023/06/17 12:30:58;;;;;;;;;;;;;;;25.12;37.03;100344.50;4958797;27;98042;-72
2023/06/17 12:33:25;;;;;;;;;;;;;;;25.12;36.95;100350.03;4928051;28;98393;-67
2023/06/17 12:35:51;;;;;;;;;;;;;;;25.25;36.88;100347.06;4932097;28;97926;-72
2023/06/17 12:38:20;;;;;;;;;;;;;;;25.41;36.60;100344.97;4946125;28;98506;-73